createdAt,value
2018-09-29T00:01:00.185Z,89.21
2018-09-29T00:04:04.517Z,89.52
2018-09-29T00:07:09.000Z,89.42
2018-09-29T00:10:13.385Z,90.88
2018-09-29T00:13:17.648Z,90.49
2018-09-29T00:16:21.968Z,89.76
2018-09-29T00:19:26.287Z,90.83
2018-09-29T00:22:30.636Z,91.93
2018-09-29T00:25:34.962Z,92.83
2018-09-29T00:28:39.309Z,93.23
2018-09-29T00:31:43.630Z,93.00
2018-09-29T00:34:48.003Z,93.12
2018-09-29T00:37:52.352Z,93.35
2018-09-29T00:40:57.348Z,93.48
2018-09-29T00:44:01.648Z,94.18
2018-09-29T00:47:05.949Z,94.46
2018-09-29T00:50:10.257Z,95.17
2018-09-29T00:53:14.580Z,96.03
2018-09-29T00:56:18.898Z,96.46
2018-09-29T00:59:23.220Z,97.04
2018-09-29T01:02:27.539Z,97.46
2018-09-29T01:05:31.849Z,96.26
2018-09-29T01:08:36.167Z,94.00
2018-09-29T01:11:40.559Z,92.32
2018-09-29T01:14:44.876Z,91.75
2018-09-29T01:17:49.208Z,91.63
2018-09-29T01:20:53.514Z,91.89
2018-09-29T01:23:57.884Z,92.60
2018-09-29T01:27:02.181Z,90.91
2018-09-29T01:30:06.499Z,91.15
2018-09-29T01:33:10.836Z,91.48
2018-09-29T01:36:15.355Z,91.41
2018-09-29T01:39:19.678Z,90.65
2018-09-29T01:42:23.981Z,91.03
2018-09-29T01:45:28.312Z,90.13
2018-09-29T01:48:32.599Z,90.71
2018-09-29T01:51:36.891Z,91.49
2018-09-29T01:54:41.235Z,91.35
2018-09-29T01:57:45.499Z,91.25
2018-09-29T02:00:49.841Z,91.31
2018-09-29T02:03:54.099Z,90.14
2018-09-29T02:06:58.461Z,90.29
2018-09-29T02:10:02.767Z,90.29
2018-09-29T02:13:07.080Z,90.38
2018-09-29T02:16:11.404Z,90.30
2018-09-29T02:19:15.704Z,91.51
2018-09-29T02:22:20.000Z,90.78
2018-09-29T02:25:24.492Z,91.33
2018-09-29T02:28:29.391Z,92.49
2018-09-29T02:31:33.683Z,93.68
2018-09-29T02:34:38.169Z,94.01
2018-09-29T02:37:42.441Z,95.49
2018-09-29T02:40:46.738Z,96.93
2018-09-29T02:43:51.040Z,96.99
2018-09-29T02:46:55.377Z,95.29
2018-09-29T02:49:59.640Z,95.14
2018-09-29T02:53:03.933Z,95.38
2018-09-29T02:56:08.224Z,95.46
2018-09-29T02:59:12.520Z,94.62
2018-09-29T03:02:16.831Z,95.51
2018-09-29T03:05:21.171Z,97.30
2018-09-29T03:08:25.454Z,98.18
2018-09-29T03:11:29.739Z,99.48
2018-09-29T03:14:34.127Z,98.60
2018-09-29T03:17:38.440Z,100.00
2018-09-29T03:20:42.731Z,99.29
2018-09-29T03:23:47.044Z,97.87
2018-09-29T03:26:51.342Z,98.63
2018-09-29T03:29:55.656Z,100.00
2018-09-29T03:32:59.969Z,100.00
2018-09-29T03:36:04.270Z,99.58
2018-09-29T03:39:11.692Z,97.87
2018-09-29T03:42:15.995Z,97.97
2018-09-29T03:45:20.280Z,98.24
2018-09-29T03:48:24.681Z,98.55
2018-09-29T03:51:29.025Z,97.92
2018-09-29T03:54:33.308Z,97.89
2018-09-29T03:57:37.600Z,98.44
2018-09-29T04:00:41.931Z,98.38
2018-09-29T04:03:46.247Z,98.53
2018-09-29T04:06:50.811Z,97.36
2018-09-29T04:09:55.112Z,95.58
2018-09-29T04:12:59.389Z,96.13
2018-09-29T04:16:03.676Z,96.43
2018-09-29T04:19:08.180Z,95.29
2018-09-29T04:22:12.568Z,94.79
2018-09-29T04:25:16.850Z,93.98
2018-09-29T04:28:21.136Z,93.91
2018-09-29T04:31:25.425Z,94.32
2018-09-29T04:34:29.704Z,94.76
2018-09-29T04:37:34.117Z,93.42
2018-09-29T04:40:38.407Z,93.58
2018-09-29T04:43:42.740Z,93.21
2018-09-29T04:46:47.052Z,93.36
2018-09-29T04:49:51.336Z,92.14
2018-09-29T04:52:55.651Z,90.96
2018-09-29T04:55:59.942Z,91.37
2018-09-29T04:59:04.217Z,92.79
2018-09-29T05:02:08.519Z,92.88
2018-09-29T05:05:12.815Z,91.82
2018-09-29T05:08:17.099Z,90.45
2018-09-29T05:11:21.552Z,91.75
2018-09-29T05:14:25.851Z,90.79
2018-09-29T05:17:30.141Z,91.39
2018-09-29T05:20:47.065Z,90.99
2018-09-29T05:23:51.368Z,89.67
2018-09-29T05:26:55.864Z,89.55
2018-09-29T05:30:00.169Z,90.89
2018-09-29T05:33:04.456Z,90.17
2018-09-29T05:36:08.952Z,89.89
2018-09-29T05:39:13.314Z,89.21
2018-09-29T05:42:17.658Z,90.12
2018-09-29T05:45:22.047Z,88.46
2018-09-29T05:48:26.565Z,87.44
2018-09-29T05:51:31.083Z,86.98
2018-09-29T05:54:35.533Z,87.38
2018-09-29T05:57:39.860Z,86.55
2018-09-29T06:00:44.188Z,86.32
2018-09-29T06:03:48.482Z,86.22
2018-09-29T06:06:53.280Z,85.57
2018-09-29T06:09:57.675Z,85.93
2018-09-29T06:13:01.941Z,85.93
2018-09-29T06:16:06.232Z,84.66
2018-09-29T06:19:10.589Z,84.25
2018-09-29T06:22:14.912Z,83.35
2018-09-29T06:25:19.339Z,83.68
2018-09-29T06:28:23.799Z,83.24
2018-09-29T06:31:28.093Z,83.57
2018-09-29T06:34:32.494Z,81.63
2018-09-29T06:37:37.076Z,81.94
2018-09-29T06:40:41.500Z,82.48
2018-09-29T06:43:45.962Z,82.65
2018-09-29T06:46:50.348Z,83.10
2018-09-29T06:49:54.787Z,83.18
2018-09-29T06:52:59.205Z,84.07
2018-09-29T06:56:03.600Z,84.35
2018-09-29T06:59:08.340Z,83.23
2018-09-29T07:02:12.822Z,82.45
2018-09-29T07:05:17.228Z,82.86
2018-09-29T07:08:22.528Z,83.10
2018-09-29T07:11:26.849Z,82.87
2018-09-29T07:14:31.193Z,82.38
2018-09-29T07:17:35.514Z,81.75
2018-09-29T07:20:39.866Z,81.06
2018-09-29T07:23:45.538Z,80.94
2018-09-29T07:26:49.924Z,81.34
2018-09-29T07:29:54.740Z,80.01
2018-09-29T07:32:59.077Z,79.60
2018-09-29T07:36:03.805Z,78.78
2018-09-29T07:39:10.008Z,77.53
2018-09-29T07:42:14.310Z,76.62
2018-09-29T07:45:18.654Z,75.97
2018-09-29T07:48:23.006Z,76.32
2018-09-29T07:51:27.713Z,75.40
2018-09-29T07:54:32.036Z,74.36
2018-09-29T07:57:36.463Z,73.76
2018-09-29T08:00:40.901Z,72.83
2018-09-29T08:03:45.591Z,72.44
2018-09-29T08:06:52.076Z,72.43
2018-09-29T08:09:56.960Z,71.50
2018-09-29T08:13:01.721Z,71.34
2018-09-29T08:16:07.123Z,71.01
2018-09-29T08:19:11.820Z,72.58
2018-09-29T08:22:16.752Z,71.50
2018-09-29T08:25:21.814Z,70.29
2018-09-29T08:28:27.929Z,70.47
2018-09-29T08:31:32.493Z,69.62
2018-09-29T08:34:37.291Z,71.57
2018-09-29T08:37:41.886Z,71.91
2018-09-29T08:40:46.852Z,70.93
2018-09-29T08:43:51.342Z,71.33
2018-09-29T08:46:56.327Z,72.31
2018-09-29T08:57:11.587Z,71.33
2018-09-29T09:00:16.354Z,70.68
2018-09-29T09:03:20.926Z,70.67
2018-09-29T09:06:25.410Z,70.76
2018-09-29T09:09:29.945Z,70.50
2018-09-29T09:12:34.842Z,69.27
2018-09-29T09:15:39.474Z,69.90
2018-09-29T09:18:44.146Z,69.67
2018-09-29T09:21:48.857Z,67.80
2018-09-29T09:24:53.395Z,68.33
2018-09-29T09:27:58.229Z,68.87
2018-09-29T09:31:02.693Z,68.46
2018-09-29T09:34:07.220Z,68.80
2018-09-29T09:37:12.020Z,69.82
2018-09-29T09:40:16.466Z,68.54
2018-09-29T09:43:20.943Z,67.49
2018-09-29T09:46:25.229Z,68.78
2018-09-29T09:49:29.626Z,66.59
2018-09-29T09:52:34.054Z,66.53
2018-09-29T09:55:38.834Z,65.64
2018-09-29T09:58:43.424Z,65.17
2018-09-29T10:01:53.111Z,66.33
2018-09-29T10:04:57.927Z,64.99
2018-09-29T10:08:02.383Z,64.68
2018-09-29T10:11:07.004Z,64.24
2018-09-29T10:14:11.458Z,64.51
2018-09-29T10:17:16.003Z,63.33
2018-09-29T10:20:20.399Z,65.25
2018-09-29T10:23:25.192Z,69.50
2018-09-29T10:26:29.660Z,67.10
2018-09-29T10:29:34.220Z,67.92
2018-09-29T10:32:38.787Z,69.70
2018-09-29T10:35:43.216Z,67.01
2018-09-29T10:38:47.659Z,67.96
2018-09-29T10:41:52.149Z,65.57
2018-09-29T10:44:56.642Z,65.50
2018-09-29T10:48:01.139Z,65.33
2018-09-29T10:51:05.541Z,63.76
2018-09-29T10:54:10.042Z,65.02
2018-09-29T10:57:14.359Z,66.01
2018-09-29T11:00:18.886Z,64.65
2018-09-29T11:03:23.295Z,66.46
2018-09-29T11:06:28.237Z,65.09
2018-09-29T11:09:33.279Z,64.98
2018-09-29T11:12:37.800Z,64.88
2018-09-29T11:15:43.902Z,65.31
2018-09-29T11:18:48.782Z,64.64
2018-09-29T11:21:53.410Z,62.81
2018-09-29T11:24:58.014Z,61.82
2018-09-29T11:28:02.496Z,61.17
2018-09-29T11:31:06.978Z,62.07
2018-09-29T11:34:11.494Z,62.79
2018-09-29T11:37:15.824Z,63.41
2018-09-29T11:40:20.210Z,62.01
2018-09-29T11:43:24.577Z,63.50
2018-09-29T11:46:28.905Z,63.37
2018-09-29T11:49:33.218Z,62.41
2018-09-29T11:52:37.618Z,62.00
2018-09-29T11:55:42.048Z,62.21
2018-09-29T11:58:46.331Z,62.03
2018-09-29T12:01:50.703Z,62.90
2018-09-29T12:04:55.209Z,62.77
2018-09-29T12:07:59.993Z,61.87
2018-09-29T12:11:05.005Z,62.61
2018-09-29T12:14:09.425Z,61.72
2018-09-29T12:17:13.942Z,62.83
2018-09-29T12:20:20.866Z,62.45
2018-09-29T12:23:25.313Z,62.47
2018-09-29T12:26:30.080Z,61.71
2018-09-29T12:29:34.646Z,62.09
2018-09-29T12:32:39.060Z,61.95
2018-09-29T12:35:43.447Z,61.91
2018-09-29T12:38:48.103Z,61.42
2018-09-29T12:41:52.665Z,60.32
2018-09-29T12:44:57.038Z,60.81
2018-09-29T12:48:01.304Z,60.00
2018-09-29T12:51:05.603Z,59.46
2018-09-29T12:54:09.946Z,61.43
2018-09-29T12:57:14.251Z,61.38
2018-09-29T13:00:18.588Z,60.20
2018-09-29T13:03:23.012Z,59.61
2018-09-29T13:06:27.309Z,61.22
2018-09-29T13:09:38.235Z,59.94
2018-09-29T13:12:42.692Z,60.66
2018-09-29T13:15:47.029Z,60.58
2018-09-29T13:18:51.396Z,60.24
2018-09-29T13:21:55.738Z,61.24
2018-09-29T13:25:00.085Z,60.68
2018-09-29T13:28:04.458Z,61.72
2018-09-29T13:31:08.914Z,60.52
2018-09-29T13:34:13.217Z,60.42
2018-09-29T13:37:17.581Z,60.72
2018-09-29T13:40:21.952Z,60.60
2018-09-29T13:43:26.423Z,60.75
2018-09-29T13:46:30.887Z,60.85
2018-09-29T13:49:35.338Z,60.46
2018-09-29T13:52:39.888Z,59.81
2018-09-29T13:55:44.216Z,60.07
2018-09-29T13:58:48.672Z,59.85
2018-09-29T14:01:53.071Z,61.07
2018-09-29T14:04:57.457Z,61.43
2018-09-29T14:08:01.788Z,60.77
2018-09-29T14:11:06.192Z,59.54
2018-09-29T14:14:10.648Z,60.33
2018-09-29T14:17:15.111Z,60.39
2018-09-29T14:20:19.509Z,61.98
2018-09-29T14:23:23.876Z,60.63
2018-09-29T14:26:28.258Z,60.63
2018-09-29T14:29:32.792Z,60.65
2018-09-29T14:32:37.350Z,59.92
2018-09-29T14:35:41.728Z,59.75
2018-09-29T14:38:46.314Z,60.70
2018-09-29T14:41:50.662Z,60.56
2018-09-29T14:44:55.449Z,60.24
2018-09-29T14:47:59.865Z,60.39
2018-09-29T14:51:04.499Z,61.83
2018-09-29T14:54:08.836Z,60.20
2018-09-29T14:57:13.273Z,59.67
2018-09-29T15:00:17.651Z,59.52
2018-09-29T15:03:22.216Z,61.15
2018-09-29T15:06:26.676Z,60.91
2018-09-29T15:09:31.206Z,59.63
2018-09-29T15:12:35.736Z,60.44
2018-09-29T15:15:40.424Z,60.20
2018-09-29T15:18:45.320Z,60.61
2018-09-29T15:21:49.940Z,60.97
2018-09-29T15:24:54.368Z,60.96
2018-09-29T15:27:58.757Z,62.21
2018-09-29T15:31:03.531Z,61.37
2018-09-29T15:34:08.200Z,60.93
2018-09-29T15:37:12.947Z,61.54
2018-09-29T15:40:17.343Z,62.21
2018-09-29T15:43:21.867Z,62.38
2018-09-29T15:46:26.330Z,63.00
2018-09-29T15:49:30.973Z,62.20
2018-09-29T15:52:35.511Z,63.13
2018-09-29T15:55:40.646Z,64.49
2018-09-29T15:58:45.218Z,63.89
2018-09-29T16:01:49.603Z,64.16
2018-09-29T16:04:54.864Z,64.19
2018-09-29T16:07:59.519Z,64.33
2018-09-29T16:11:04.054Z,63.90
2018-09-29T16:14:08.645Z,63.77
2018-09-29T16:17:12.969Z,64.66
2018-09-29T16:20:17.941Z,66.00
2018-09-29T16:23:22.388Z,66.83
2018-09-29T16:26:26.885Z,66.48
2018-09-29T16:29:31.363Z,66.34
2018-09-29T16:32:35.760Z,65.87
2018-09-29T16:35:40.155Z,66.60
2018-09-29T16:38:44.545Z,66.69
2018-09-29T16:41:49.000Z,66.85
2018-09-29T16:44:53.323Z,67.27
2018-09-29T16:47:58.045Z,68.05
2018-09-29T16:51:06.882Z,68.60
2018-09-29T16:54:11.346Z,69.28
2018-09-29T16:57:15.711Z,70.23
2018-09-29T17:00:20.084Z,71.24
2018-09-29T17:03:24.406Z,72.22
2018-09-29T17:06:28.692Z,72.72
2018-09-29T17:09:33.020Z,72.27
2018-09-29T17:12:37.312Z,73.02
2018-09-29T17:15:41.652Z,73.39
2018-09-29T17:18:45.909Z,73.45
2018-09-29T17:21:50.222Z,73.48
2018-09-29T17:24:54.576Z,72.91
2018-09-29T17:27:59.019Z,73.22
2018-09-29T17:31:03.311Z,73.70
2018-09-29T17:34:07.624Z,72.95
2018-09-29T17:37:15.491Z,72.77
2018-09-29T17:40:23.743Z,72.21
2018-09-29T17:43:30.441Z,72.10
2018-09-29T17:46:38.182Z,72.44
2018-09-29T17:49:46.178Z,73.23
2018-09-29T17:52:53.284Z,72.80
2018-09-29T17:55:59.628Z,72.84
2018-09-29T17:59:06.268Z,73.42
2018-09-29T18:02:10.548Z,73.22
2018-09-29T18:05:14.842Z,75.03
2018-09-29T18:08:19.136Z,74.61
2018-09-29T18:11:23.432Z,75.98
2018-09-29T18:14:27.782Z,76.12
2018-09-29T18:17:32.105Z,77.15
2018-09-29T18:20:36.387Z,77.53
2018-09-29T18:23:40.761Z,78.42
2018-09-29T18:26:45.168Z,78.11
2018-09-29T18:29:49.467Z,76.62
2018-09-29T18:32:53.839Z,78.43
2018-09-29T18:35:58.162Z,77.96
2018-09-29T18:39:02.491Z,78.22
2018-09-29T18:42:06.802Z,77.60
2018-09-29T18:45:11.200Z,78.58
2018-09-29T18:48:15.635Z,78.32
2018-09-29T18:51:20.101Z,79.86
2018-09-29T18:54:24.536Z,80.23
2018-09-29T18:57:28.947Z,80.99
2018-09-29T19:00:33.186Z,81.79
2018-09-29T19:03:37.479Z,81.69
2018-09-29T19:06:41.776Z,80.25
2018-09-29T19:09:46.175Z,81.68
2018-09-29T19:12:50.547Z,81.76
2018-09-29T19:15:54.771Z,82.41
2018-09-29T19:18:59.117Z,82.32
2018-09-29T19:22:03.386Z,82.68
2018-09-29T19:25:07.869Z,81.63
2018-09-29T19:28:12.148Z,82.01
2018-09-29T19:31:16.526Z,82.58
2018-09-29T19:34:20.837Z,83.22
2018-09-29T19:37:25.122Z,82.73
2018-09-29T19:40:29.405Z,82.85
2018-09-29T19:43:33.956Z,83.32
2018-09-29T19:46:39.116Z,83.16
2018-09-29T19:49:43.471Z,83.81
2018-09-29T19:52:47.751Z,82.69
2018-09-29T19:55:52.030Z,83.66
2018-09-29T19:58:56.383Z,82.57
2018-09-29T20:02:00.675Z,83.24
2018-09-29T20:05:05.410Z,83.68
2018-09-29T20:08:09.739Z,83.52
2018-09-29T20:11:14.032Z,84.24
2018-09-29T20:14:18.346Z,84.19
2018-09-29T20:17:22.686Z,84.36
2018-09-29T20:20:26.996Z,84.20
2018-09-29T20:23:31.316Z,85.21
2018-09-29T20:26:35.633Z,85.56
2018-09-29T20:29:39.999Z,84.56
2018-09-29T20:32:44.389Z,84.83
2018-09-29T20:35:48.720Z,82.86
2018-09-29T20:38:53.164Z,81.00
2018-09-29T20:41:57.615Z,82.44
2018-09-29T20:45:01.994Z,82.47
2018-09-29T20:48:06.397Z,83.21
2018-09-29T20:51:10.703Z,83.08
2018-09-29T20:54:15.161Z,82.71
2018-09-29T20:57:19.635Z,83.50
2018-09-29T21:00:24.001Z,84.62
2018-09-29T21:03:29.100Z,84.44
2018-09-29T21:06:34.074Z,85.06
2018-09-29T21:09:38.504Z,87.95
2018-09-29T21:12:42.856Z,89.16
2018-09-29T21:15:48.280Z,89.90
2018-09-29T21:18:52.644Z,91.09
2018-09-29T21:21:57.052Z,91.68
2018-09-29T21:25:01.461Z,92.69
2018-09-29T21:28:05.837Z,93.16
2018-09-29T21:31:10.182Z,93.94
2018-09-29T21:34:14.749Z,93.19
2018-09-29T21:37:19.261Z,92.71
2018-09-29T21:40:23.672Z,93.16
2018-09-29T21:43:28.052Z,92.59
2018-09-29T21:46:32.388Z,92.33
2018-09-29T21:49:36.719Z,92.54
2018-09-29T21:52:41.123Z,91.19
2018-09-29T21:55:45.498Z,90.60
2018-09-29T21:58:49.799Z,90.20
2018-09-29T22:01:54.119Z,89.76
2018-09-29T22:04:58.482Z,88.59
2018-09-29T22:08:02.859Z,86.89
2018-09-29T22:11:07.354Z,85.54
2018-09-29T22:14:11.654Z,87.51
2018-09-29T22:17:16.613Z,89.21
2018-09-29T22:20:20.909Z,89.05
2018-09-29T22:23:25.234Z,89.52
2018-09-29T22:26:29.570Z,90.09
2018-09-29T22:29:33.981Z,89.04
2018-09-29T22:32:38.299Z,88.38
2018-09-29T22:35:42.625Z,88.74
2018-09-29T22:38:46.927Z,87.69
2018-09-29T22:41:51.309Z,85.19
2018-09-29T22:44:55.621Z,84.26
2018-09-29T22:47:59.969Z,83.27
2018-09-29T22:51:04.289Z,81.89
2018-09-29T22:54:08.624Z,83.66
2018-09-29T22:57:12.955Z,84.33
2018-09-29T23:00:17.271Z,85.27
2018-09-29T23:03:22.029Z,85.09
2018-09-29T23:06:26.304Z,83.51
2018-09-29T23:09:30.588Z,84.25
2018-09-29T23:12:35.860Z,83.75
2018-09-29T23:15:40.140Z,85.09
2018-09-29T23:18:44.425Z,85.61
2018-09-29T23:21:48.720Z,86.15
2018-09-29T23:24:53.036Z,86.08
2018-09-29T23:27:57.327Z,85.96
2018-09-29T23:31:01.653Z,85.66
2018-09-29T23:34:06.268Z,86.59
2018-09-29T23:37:10.550Z,88.17
2018-09-29T23:40:14.840Z,86.94
2018-09-29T23:43:19.173Z,86.37
2018-09-29T23:46:23.473Z,86.92
2018-09-29T23:49:27.839Z,87.00
2018-09-29T23:52:32.187Z,86.89
2018-09-29T23:55:36.492Z,87.51
2018-09-29T23:58:40.789Z,86.96
